sensor_id;sensor_type;location;lat;lon;timestamp;pressure;altitude;pressure_sealevel;temperature;humidity
60465;BME280;46314;52.392;9.758;2023-04-19T00:00:31;102171.09;;;10.06;42.77
60465;BME280;46314;52.392;9.758;2023-04-19T00:02:57;102160.09;;;10.16;42.48
60465;BME280;46314;52.392;9.758;2023-04-19T00:05:24;102161.41;;;10.36;42.15
60465;BME280;46314;52.392;9.758;2023-04-19T00:07:51;102166.81;;;9.71;43.71
60465;BME280;46314;52.392;9.758;2023-04-19T00:10:17;102149.38;;;9.98;43.66
60465;BME280;46314;52.392;9.758;2023-04-19T00:12:45;102156.19;;;9.63;43.33
60465;BME280;46314;52.392;9.758;2023-04-19T00:15:12;102151.28;;;9.48;43.28
60465;BME280;46314;52.392;9.758;2023-04-19T00:17:38;102155.66;;;9.44;43.43
60465;BME280;46314;52.392;9.758;2023-04-19T00:20:05;102148.38;;;9.60;43.05
60465;BME280;46314;52.392;9.758;2023-04-19T00:22:32;102161.06;;;9.56;43.09
60465;BME280;46314;52.392;9.758;2023-04-19T00:24:58;102154.41;;;9.57;42.95
60465;BME280;46314;52.392;9.758;2023-04-19T00:27:25;102157.13;;;9.74;42.84
60465;BME280;46314;52.392;9.758;2023-04-19T00:29:52;102158.06;;;9.57;42.82
60465;BME280;46314;52.392;9.758;2023-04-19T00:32:19;102163.69;;;9.23;43.36
60465;BME280;46314;52.392;9.758;2023-04-19T00:34:45;102160.97;;;9.28;43.30
60465;BME280;46314;52.392;9.758;2023-04-19T00:37:11;102165.69;;;9.28;43.44
60465;BME280;46314;52.392;9.758;2023-04-19T00:39:38;102163.63;;;9.18;43.88
60465;BME280;46314;52.392;9.758;2023-04-19T00:42:04;102163.31;;;9.15;43.84
60465;BME280;46314;52.392;9.758;2023-04-19T00:44:31;102167.50;;;9.00;44.24
60465;BME280;46314;52.392;9.758;2023-04-19T00:46:59;102165.22;;;9.14;44.04
60465;BME280;46314;52.392;9.758;2023-04-19T00:49:26;102165.06;;;9.04;44.58
60465;BME280;46314;52.392;9.758;2023-04-19T00:51:53;102170.06;;;8.85;44.88
60465;BME280;46314;52.392;9.758;2023-04-19T00:54:19;102172.56;;;8.69;45.42
60465;BME280;46314;52.392;9.758;2023-04-19T00:56:46;102181.19;;;8.56;45.91
60465;BME280;46314;52.392;9.758;2023-04-19T00:59:13;102177.41;;;8.45;45.90
60465;BME280;46314;52.392;9.758;2023-04-19T01:01:40;102177.69;;;8.32;46.36
60465;BME280;46314;52.392;9.758;2023-04-19T01:04:08;102168.69;;;8.08;46.47
60465;BME280;46314;52.392;9.758;2023-04-19T01:06:35;102175.91;;;8.26;47.20
60465;BME280;46314;52.392;9.758;2023-04-19T01:09:01;102173.25;;;8.31;46.73
60465;BME280;46314;52.392;9.758;2023-04-19T01:11:28;102176.22;;;8.12;47.47
60465;BME280;46314;52.392;9.758;2023-04-19T01:13:55;102178.88;;;8.36;47.25
60465;BME280;46314;52.392;9.758;2023-04-19T01:16:21;102172.72;;;7.88;48.06
60465;BME280;46314;52.392;9.758;2023-04-19T01:18:48;102173.06;;;7.92;48.08
60465;BME280;46314;52.392;9.758;2023-04-19T01:21:16;102173.47;;;7.84;48.37
60465;BME280;46314;52.392;9.758;2023-04-19T01:23:44;102164.84;;;7.68;48.61
60465;BME280;46314;52.392;9.758;2023-04-19T01:26:10;102170.66;;;7.95;48.00
60465;BME280;46314;52.392;9.758;2023-04-19T01:28:37;102168.03;;;7.89;48.36
60465;BME280;46314;52.392;9.758;2023-04-19T01:31:03;102171.22;;;8.26;47.74
60465;BME280;46314;52.392;9.758;2023-04-19T01:33:30;102177.16;;;7.89;48.50
60465;BME280;46314;52.392;9.758;2023-04-19T01:35:56;102168.31;;;7.75;48.88
60465;BME280;46314;52.392;9.758;2023-04-19T01:38:22;102171.38;;;7.62;49.74
60465;BME280;46314;52.392;9.758;2023-04-19T01:40:50;102172.53;;;7.66;49.47
60465;BME280;46314;52.392;9.758;2023-04-19T01:43:17;102172.97;;;7.34;49.94
60465;BME280;46314;52.392;9.758;2023-04-19T01:45:43;102167.78;;;7.62;49.83
60465;BME280;46314;52.392;9.758;2023-04-19T01:48:10;102174.19;;;7.79;49.63
60465;BME280;46314;52.392;9.758;2023-04-19T01:50:36;102165.63;;;7.52;50.15
60465;BME280;46314;52.392;9.758;2023-04-19T01:53:03;102170.50;;;8.02;49.26
60465;BME280;46314;52.392;9.758;2023-04-19T01:55:29;102164.00;;;7.80;49.92
60465;BME280;46314;52.392;9.758;2023-04-19T01:57:57;102168.97;;;7.94;49.74
60465;BME280;46314;52.392;9.758;2023-04-19T02:00:23;102164.00;;;7.80;49.86
60465;BME280;46314;52.392;9.758;2023-04-19T02:02:50;102159.03;;;7.53;50.55
60465;BME280;46314;52.392;9.758;2023-04-19T02:05:17;102153.25;;;7.54;50.86
60465;BME280;46314;52.392;9.758;2023-04-19T02:07:43;102154.19;;;8.18;49.75
60465;BME280;46314;52.392;9.758;2023-04-19T02:10:10;102147.59;;;7.61;50.46
60465;BME280;46314;52.392;9.758;2023-04-19T02:12:36;102153.44;;;7.76;50.21
60465;BME280;46314;52.392;9.758;2023-04-19T02:15:06;102152.34;;;7.77;50.64
60465;BME280;46314;52.392;9.758;2023-04-19T02:17:32;102160.47;;;7.44;51.30
60465;BME280;46314;52.392;9.758;2023-04-19T02:19:59;102159.97;;;7.58;51.23
60465;BME280;46314;52.392;9.758;2023-04-19T02:22:26;102164.56;;;7.41;51.66
60465;BME280;46314;52.392;9.758;2023-04-19T02:24:52;102163.69;;;7.64;51.35
60465;BME280;46314;52.392;9.758;2023-04-19T02:27:19;102179.44;;;7.52;51.99
60465;BME280;46314;52.392;9.758;2023-04-19T02:29:45;102174.75;;;7.52;52.19
60465;BME280;46314;52.392;9.758;2023-04-19T02:32:13;102177.38;;;7.47;52.41
60465;BME280;46314;52.392;9.758;2023-04-19T02:34:39;102178.38;;;7.53;51.59
60465;BME280;46314;52.392;9.758;2023-04-19T02:37:05;102168.44;;;7.28;52.41
60465;BME280;46314;52.392;9.758;2023-04-19T02:39:32;102179.09;;;7.89;51.39
60465;BME280;46314;52.392;9.758;2023-04-19T02:41:58;102170.34;;;7.39;52.25
60465;BME280;46314;52.392;9.758;2023-04-19T02:44:25;102172.06;;;6.93;53.71
60465;BME280;46314;52.392;9.758;2023-04-19T02:46:51;102169.28;;;7.29;52.99
60465;BME280;46314;52.392;9.758;2023-04-19T02:49:20;102166.91;;;6.97;53.64
60465;BME280;46314;52.392;9.758;2023-04-19T02:51:46;102172.38;;;7.44;52.48
60465;BME280;46314;52.392;9.758;2023-04-19T02:54:13;102170.72;;;6.96;53.80
60465;BME280;46314;52.392;9.758;2023-04-19T02:56:40;102173.22;;;7.33;53.18
60465;BME280;46314;52.392;9.758;2023-04-19T02:59:06;102163.91;;;6.98;54.05
60465;BME280;46314;52.392;9.758;2023-04-19T03:01:32;102165.94;;;6.91;54.05
60465;BME280;46314;52.392;9.758;2023-04-19T03:03:59;102167.75;;;7.09;53.61
60465;BME280;46314;52.392;9.758;2023-04-19T03:06:27;102171.09;;;6.76;54.86
60465;BME280;46314;52.392;9.758;2023-04-19T03:08:53;102161.25;;;6.80;54.72
60465;BME280;46314;52.392;9.758;2023-04-19T03:11:20;102158.16;;;6.88;54.51
60465;BME280;46314;52.392;9.758;2023-04-19T03:13:46;102157.44;;;6.81;54.69
60465;BME280;46314;52.392;9.758;2023-04-19T03:16:12;102156.09;;;6.95;54.25
60465;BME280;46314;52.392;9.758;2023-04-19T03:18:39;102165.41;;;7.42;53.52
60465;BME280;46314;52.392;9.758;2023-04-19T03:21:06;102162.88;;;7.52;52.57
60465;BME280;46314;52.392;9.758;2023-04-19T03:23:33;102175.13;;;7.44;53.28
60465;BME280;46314;52.392;9.758;2023-04-19T03:26:00;102158.38;;;7.74;52.30
60465;BME280;46314;52.392;9.758;2023-04-19T03:28:26;102155.75;;;7.96;51.72
60465;BME280;46314;52.392;9.758;2023-04-19T03:30:53;102160.88;;;8.05;51.92
60465;BME280;46314;52.392;9.758;2023-04-19T03:33:19;102154.00;;;7.38;52.75
60465;BME280;46314;52.392;9.758;2023-04-19T03:35:46;102151.13;;;7.45;52.91
60465;BME280;46314;52.392;9.758;2023-04-19T03:38:12;102147.91;;;7.76;52.81
60465;BME280;46314;52.392;9.758;2023-04-19T03:40:40;102150.31;;;8.02;51.97
60465;BME280;46314;52.392;9.758;2023-04-19T03:43:06;102148.50;;;8.07;51.61
60465;BME280;46314;52.392;9.758;2023-04-19T03:45:33;102152.38;;;8.40;51.12
60465;BME280;46314;52.392;9.758;2023-04-19T03:47:59;102145.44;;;8.38;50.65
60465;BME280;46314;52.392;9.758;2023-04-19T03:50:28;102144.09;;;7.94;52.03
60465;BME280;46314;52.392;9.758;2023-04-19T03:52:54;102146.66;;;7.84;52.28
60465;BME280;46314;52.392;9.758;2023-04-19T03:55:21;102146.66;;;8.13;51.86
60465;BME280;46314;52.392;9.758;2023-04-19T03:57:49;102150.19;;;7.80;52.75
60465;BME280;46314;52.392;9.758;2023-04-19T04:00:16;102148.97;;;7.75;52.61
60465;BME280;46314;52.392;9.758;2023-04-19T04:02:42;102150.13;;;7.91;52.55
60465;BME280;46314;52.392;9.758;2023-04-19T04:05:09;102150.44;;;7.14;54.05
60465;BME280;46314;52.392;9.758;2023-04-19T04:07:35;102149.72;;;7.07;54.44
60465;BME280;46314;52.392;9.758;2023-04-19T04:10:02;102151.41;;;6.60;55.91
60465;BME280;46314;52.392;9.758;2023-04-19T04:12:29;102142.88;;;6.50;56.33
60465;BME280;46314;52.392;9.758;2023-04-19T04:14:57;102136.16;;;7.05;55.80
60465;BME280;46314;52.392;9.758;2023-04-19T04:17:23;102135.22;;;6.88;56.00
60465;BME280;46314;52.392;9.758;2023-04-19T04:19:50;102139.78;;;6.94;55.35
60465;BME280;46314;52.392;9.758;2023-04-19T04:22:16;102148.16;;;6.52;56.76
60465;BME280;46314;52.392;9.758;2023-04-19T04:24:43;102145.19;;;6.77;55.88
60465;BME280;46314;52.392;9.758;2023-04-19T04:27:10;102145.50;;;7.28;55.07
60465;BME280;46314;52.392;9.758;2023-04-19T04:29:37;102144.19;;;6.59;56.37
60465;BME280;46314;52.392;9.758;2023-04-19T04:32:06;102143.84;;;6.44;57.09
60465;BME280;46314;52.392;9.758;2023-04-19T04:34:32;102139.28;;;7.09;55.55
60465;BME280;46314;52.392;9.758;2023-04-19T04:36:59;102146.03;;;6.77;56.55
60465;BME280;46314;52.392;9.758;2023-04-19T04:39:25;102143.63;;;6.93;55.90
60465;BME280;46314;52.392;9.758;2023-04-19T04:41:52;102143.03;;;6.91;55.84
60465;BME280;46314;52.392;9.758;2023-04-19T04:44:18;102143.75;;;6.86;56.35
60465;BME280;46314;52.392;9.758;2023-04-19T04:46:44;102147.81;;;6.83;56.76
60465;BME280;46314;52.392;9.758;2023-04-19T04:49:12;102142.38;;;7.48;54.73
60465;BME280;46314;52.392;9.758;2023-04-19T04:51:39;102147.78;;;7.43;54.84
60465;BME280;46314;52.392;9.758;2023-04-19T04:54:05;102144.72;;;6.92;56.01
60465;BME280;46314;52.392;9.758;2023-04-19T04:56:32;102152.34;;;7.77;54.07
60465;BME280;46314;52.392;9.758;2023-04-19T04:58:58;102161.22;;;7.27;55.65
60465;BME280;46314;52.392;9.758;2023-04-19T05:01:24;102158.16;;;7.93;53.91
60465;BME280;46314;52.392;9.758;2023-04-19T05:03:51;102154.38;;;7.82;53.29
60465;BME280;46314;52.392;9.758;2023-04-19T05:06:19;102154.59;;;7.40;54.95
60465;BME280;46314;52.392;9.758;2023-04-19T05:08:45;102155.75;;;7.04;56.61
60465;BME280;46314;52.392;9.758;2023-04-19T05:11:11;102149.84;;;6.76;57.01
60465;BME280;46314;52.392;9.758;2023-04-19T05:13:38;102153.19;;;7.14;56.86
60465;BME280;46314;52.392;9.758;2023-04-19T05:16:05;102149.84;;;7.00;56.40
60465;BME280;46314;52.392;9.758;2023-04-19T05:18:31;102161.25;;;7.15;56.37
60465;BME280;46314;52.392;9.758;2023-04-19T05:20:58;102158.03;;;6.95;56.68
60465;BME280;46314;52.392;9.758;2023-04-19T05:23:25;102152.13;;;6.44;58.25
60465;BME280;46314;52.392;9.758;2023-04-19T05:25:52;102158.59;;;7.32;55.69
60465;BME280;46314;52.392;9.758;2023-04-19T05:28:18;102152.53;;;7.47;55.32
60465;BME280;46314;52.392;9.758;2023-04-19T05:30:45;102150.97;;;7.92;53.66
60465;BME280;46314;52.392;9.758;2023-04-19T05:33:11;102153.66;;;7.75;55.07
60465;BME280;46314;52.392;9.758;2023-04-19T05:35:38;102155.16;;;7.94;54.59
60465;BME280;46314;52.392;9.758;2023-04-19T05:38:04;102151.56;;;6.77;57.17
60465;BME280;46314;52.392;9.758;2023-04-19T05:40:32;102145.09;;;7.88;54.84
60465;BME280;46314;52.392;9.758;2023-04-19T05:42:58;102146.84;;;7.77;55.00
60465;BME280;46314;52.392;9.758;2023-04-19T05:45:25;102146.09;;;7.70;55.14
60465;BME280;46314;52.392;9.758;2023-04-19T05:47:51;102140.91;;;7.45;55.54
60465;BME280;46314;52.392;9.758;2023-04-19T05:50:18;102147.44;;;7.27;56.53
60465;BME280;46314;52.392;9.758;2023-04-19T05:52:45;102147.25;;;7.46;56.50
60465;BME280;46314;52.392;9.758;2023-04-19T05:55:11;102151.09;;;8.94;52.64
60465;BME280;46314;52.392;9.758;2023-04-19T05:57:39;102141.50;;;9.01;51.74
60465;BME280;46314;52.392;9.758;2023-04-19T06:00:06;102148.06;;;8.61;52.90
60465;BME280;46314;52.392;9.758;2023-04-19T06:02:33;102149.88;;;9.23;51.09
60465;BME280;46314;52.392;9.758;2023-04-19T06:04:59;102142.00;;;9.37;50.31
60465;BME280;46314;52.392;9.758;2023-04-19T06:07:33;102138.13;;;9.82;50.34
60465;BME280;46314;52.392;9.758;2023-04-19T06:10:09;102150.38;;;9.20;50.46
60465;BME280;46314;52.392;9.758;2023-04-19T06:12:35;102143.94;;;9.37;51.53
60465;BME280;46314;52.392;9.758;2023-04-19T06:15:05;102143.25;;;9.96;49.41
60465;BME280;46314;52.392;9.758;2023-04-19T06:17:32;102143.03;;;8.41;52.32
60465;BME280;46314;52.392;9.758;2023-04-19T06:19:58;102148.75;;;8.85;52.42
60465;BME280;46314;52.392;9.758;2023-04-19T06:22:25;102141.34;;;9.08;51.20
60465;BME280;46314;52.392;9.758;2023-04-19T06:24:51;102138.81;;;8.22;53.12
60465;BME280;46314;52.392;9.758;2023-04-19T06:27:17;102141.34;;;9.08;50.82
60465;BME280;46314;52.392;9.758;2023-04-19T06:29:44;102132.41;;;9.45;51.17
60465;BME280;46314;52.392;9.758;2023-04-19T06:32:12;102123.94;;;8.74;51.81
60465;BME280;46314;52.392;9.758;2023-04-19T06:34:38;102126.59;;;9.24;50.85
60465;BME280;46314;52.392;9.758;2023-04-19T06:37:04;102136.66;;;8.91;50.83
60465;BME280;46314;52.392;9.758;2023-04-19T06:39:31;102127.59;;;8.79;51.33
60465;BME280;46314;52.392;9.758;2023-04-19T06:41:57;102123.81;;;9.91;49.09
60465;BME280;46314;52.392;9.758;2023-04-19T06:44:24;102129.06;;;9.04;49.95
60465;BME280;46314;52.392;9.758;2023-04-19T06:46:50;102125.38;;;9.59;48.51
60465;BME280;46314;52.392;9.758;2023-04-19T06:49:18;102135.16;;;8.84;50.53
60465;BME280;46314;52.392;9.758;2023-04-19T06:51:44;102120.59;;;8.71;49.71
60465;BME280;46314;52.392;9.758;2023-04-19T06:54:11;102119.91;;;8.47;49.93
60465;BME280;46314;52.392;9.758;2023-04-19T06:56:39;102128.13;;;8.42;49.88
60465;BME280;46314;52.392;9.758;2023-04-19T06:59:05;102124.22;;;8.26;49.74
60465;BME280;46314;52.392;9.758;2023-04-19T07:01:32;102106.13;;;8.19;51.06
60465;BME280;46314;52.392;9.758;2023-04-19T07:03:58;102113.84;;;9.68;47.70
60465;BME280;46314;52.392;9.758;2023-04-19T07:06:26;102123.28;;;8.66;49.78
60465;BME280;46314;52.392;9.758;2023-04-19T07:08:53;102113.25;;;9.65;48.56
60465;BME280;46314;52.392;9.758;2023-04-19T07:11:19;102112.56;;;9.53;47.47
60465;BME280;46314;52.392;9.758;2023-04-19T07:13:48;102110.22;;;9.67;47.13
60465;BME280;46314;52.392;9.758;2023-04-19T07:16:15;102112.84;;;8.90;48.76
60465;BME280;46314;52.392;9.758;2023-04-19T07:18:42;102115.53;;;8.85;48.33
60465;BME280;46314;52.392;9.758;2023-04-19T07:21:08;102112.69;;;9.19;47.24
60465;BME280;46314;52.392;9.758;2023-04-19T07:23:36;102101.28;;;8.94;47.94
60465;BME280;46314;52.392;9.758;2023-04-19T07:26:03;102099.63;;;9.86;46.67
60465;BME280;46314;52.392;9.758;2023-04-19T07:28:30;102095.34;;;10.00;45.56
60465;BME280;46314;52.392;9.758;2023-04-19T07:30:56;102097.59;;;9.76;46.47
60465;BME280;46314;52.392;9.758;2023-04-19T07:33:23;102089.53;;;10.29;44.45
60465;BME280;46314;52.392;9.758;2023-04-19T07:35:53;102086.91;;;9.90;45.00
60465;BME280;46314;52.392;9.758;2023-04-19T07:38:19;102091.47;;;10.61;43.93
60465;BME280;46314;52.392;9.758;2023-04-19T07:40:47;102085.91;;;9.47;44.40
60465;BME280;46314;52.392;9.758;2023-04-19T07:43:14;102077.97;;;9.83;43.90
60465;BME280;46314;52.392;9.758;2023-04-19T07:45:40;102077.69;;;10.39;43.46
60465;BME280;46314;52.392;9.758;2023-04-19T07:48:07;102070.72;;;10.74;42.55
60465;BME280;46314;52.392;9.758;2023-04-19T07:50:33;102075.31;;;11.01;42.29
60465;BME280;46314;52.392;9.758;2023-04-19T07:53:00;102073.75;;;11.20;40.96
60465;BME280;46314;52.392;9.758;2023-04-19T07:55:26;102077.81;;;10.54;42.64
60465;BME280;46314;52.392;9.758;2023-04-19T07:57:54;102078.06;;;10.53;42.40
60465;BME280;46314;52.392;9.758;2023-04-19T08:00:20;102067.66;;;10.05;42.86
60465;BME280;46314;52.392;9.758;2023-04-19T08:02:47;102066.63;;;10.44;42.79
60465;BME280;46314;52.392;9.758;2023-04-19T08:05:15;102055.56;;;9.84;42.75
60465;BME280;46314;52.392;9.758;2023-04-19T08:07:42;102063.94;;;10.22;42.38
60465;BME280;46314;52.392;9.758;2023-04-19T08:10:09;102072.94;;;10.07;42.21
60465;BME280;46314;52.392;9.758;2023-04-19T08:12:35;102062.16;;;10.11;42.44
60465;BME280;46314;52.392;9.758;2023-04-19T08:15:17;102062.13;;;10.05;41.22
60465;BME280;46314;52.392;9.758;2023-04-19T08:18:03;102048.50;;;10.69;39.40
60465;BME280;46314;52.392;9.758;2023-04-19T08:20:30;102058.41;;;11.02;37.73
60465;BME280;46314;52.392;9.758;2023-04-19T08:22:58;102051.78;;;10.66;36.38
60465;BME280;46314;52.392;9.758;2023-04-19T08:25:36;102048.41;;;13.48;31.82
60465;BME280;46314;52.392;9.758;2023-04-19T08:28:02;102037.03;;;12.07;33.22
60465;BME280;46314;52.392;9.758;2023-04-19T08:30:30;102046.06;;;10.83;36.15
60465;BME280;46314;52.392;9.758;2023-04-19T08:32:57;102034.41;;;10.80;36.05
60465;BME280;46314;52.392;9.758;2023-04-19T08:35:24;102054.94;;;13.77;31.94
60465;BME280;46314;52.392;9.758;2023-04-19T08:37:50;102045.91;;;16.27;27.85
60465;BME280;46314;52.392;9.758;2023-04-19T08:40:17;102053.19;;;17.16;26.50
60465;BME280;46314;52.392;9.758;2023-04-19T08:42:43;102045.38;;;12.07;31.72
60465;BME280;46314;52.392;9.758;2023-04-19T08:45:11;102039.78;;;12.53;32.13
60465;BME280;46314;52.392;9.758;2023-04-19T08:47:55;102043.25;;;11.35;33.97
60465;BME280;46314;52.392;9.758;2023-04-19T08:50:27;102053.66;;;11.76;32.31
60465;BME280;46314;52.392;9.758;2023-04-19T08:53:06;102025.50;;;16.07;26.70
60465;BME280;46314;52.392;9.758;2023-04-19T08:55:50;102031.72;;;17.26;24.85
60465;BME280;46314;52.392;9.758;2023-04-19T08:58:37;102033.88;;;15.75;25.76
60465;BME280;46314;52.392;9.758;2023-04-19T09:01:24;102030.44;;;14.38;27.04
60465;BME280;46314;52.392;9.758;2023-04-19T09:03:54;102013.63;;;13.35;28.83
60465;BME280;46314;52.392;9.758;2023-04-19T09:06:41;102029.25;;;11.99;30.69
60465;BME280;46314;52.392;9.758;2023-04-19T09:09:15;102020.66;;;13.12;29.24
60465;BME280;46314;52.392;9.758;2023-04-19T09:12:02;102020.66;;;15.18;26.52
60465;BME280;46314;52.392;9.758;2023-04-19T09:14:28;102024.19;;;16.52;24.95
60465;BME280;46314;52.392;9.758;2023-04-19T09:17:10;102014.88;;;15.90;24.85
60465;BME280;46314;52.392;9.758;2023-04-19T09:19:45;102002.53;;;16.99;24.54
60465;BME280;46314;52.392;9.758;2023-04-19T09:22:13;102008.00;;;15.83;25.76
60465;BME280;46314;52.392;9.758;2023-04-19T09:24:39;101999.78;;;16.38;25.15
60465;BME280;46314;52.392;9.758;2023-04-19T09:27:09;101996.22;;;16.93;24.42
60465;BME280;46314;52.392;9.758;2023-04-19T09:29:35;101984.50;;;16.17;24.79
60465;BME280;46314;52.392;9.758;2023-04-19T09:32:02;101979.09;;;15.49;25.43
60465;BME280;46314;52.392;9.758;2023-04-19T09:34:29;101985.63;;;14.24;27.34
60465;BME280;46314;52.392;9.758;2023-04-19T09:36:56;101984.34;;;13.42;28.67
60465;BME280;46314;52.392;9.758;2023-04-19T09:39:40;101968.75;;;13.76;29.27
60465;BME280;46314;52.392;9.758;2023-04-19T09:42:07;101969.25;;;13.43;29.87
60465;BME280;46314;52.392;9.758;2023-04-19T09:44:34;101964.91;;;13.22;30.11
60465;BME280;46314;52.392;9.758;2023-04-19T09:47:28;101955.00;;;12.95;30.59
60465;BME280;46314;52.392;9.758;2023-04-19T09:50:06;101950.13;;;13.32;30.95
60465;BME280;46314;52.392;9.758;2023-04-19T09:52:50;101952.53;;;12.88;31.13
60465;BME280;46314;52.392;9.758;2023-04-19T09:55:18;101943.31;;;12.98;31.00
60465;BME280;46314;52.392;9.758;2023-04-19T09:57:47;101941.91;;;13.01;31.15
60465;BME280;46314;52.392;9.758;2023-04-19T10:00:14;101915.25;;;13.29;30.32
60465;BME280;46314;52.392;9.758;2023-04-19T10:02:42;101922.94;;;13.03;30.31
60465;BME280;46314;52.392;9.758;2023-04-19T10:05:10;101926.94;;;12.81;30.42
60465;BME280;46314;52.392;9.758;2023-04-19T10:07:47;101915.56;;;13.67;30.57
60465;BME280;46314;52.392;9.758;2023-04-19T10:10:16;101911.53;;;14.37;29.08
60465;BME280;46314;52.392;9.758;2023-04-19T10:12:48;101903.19;;;13.49;29.89
60465;BME280;46314;52.392;9.758;2023-04-19T10:15:36;101912.03;;;13.12;29.22
60465;BME280;46314;52.392;9.758;2023-04-19T10:18:07;101908.69;;;13.10;29.36
60465;BME280;46314;52.392;9.758;2023-04-19T10:20:38;101889.13;;;13.20;30.05
60465;BME280;46314;52.392;9.758;2023-04-19T10:23:07;101881.22;;;13.72;28.98
60465;BME280;46314;52.392;9.758;2023-04-19T10:25:36;101886.72;;;13.53;29.28
60465;BME280;46314;52.392;9.758;2023-04-19T10:28:03;101879.03;;;13.34;29.24
60465;BME280;46314;52.392;9.758;2023-04-19T10:30:29;101875.84;;;13.51;28.24
60465;BME280;46314;52.392;9.758;2023-04-19T10:32:57;101879.63;;;13.66;28.01
60465;BME280;46314;52.392;9.758;2023-04-19T10:35:25;101864.09;;;13.54;27.35
60465;BME280;46314;52.392;9.758;2023-04-19T10:38:02;101855.25;;;13.76;27.61
60465;BME280;46314;52.392;9.758;2023-04-19T10:40:59;101849.88;;;14.33;27.12
60465;BME280;46314;52.392;9.758;2023-04-19T10:43:27;101853.16;;;14.16;26.66
60465;BME280;46314;52.392;9.758;2023-04-19T10:45:54;101860.00;;;14.29;25.70
60465;BME280;46314;52.392;9.758;2023-04-19T10:48:31;101838.47;;;14.30;25.72
60465;BME280;46314;52.392;9.758;2023-04-19T10:50:58;101850.00;;;15.09;25.46
60465;BME280;46314;52.392;9.758;2023-04-19T10:53:50;101849.41;;;14.74;24.50
60465;BME280;46314;52.392;9.758;2023-04-19T10:56:20;101854.53;;;15.24;24.19
60465;BME280;46314;52.392;9.758;2023-04-19T10:59:11;101848.81;;;14.05;24.95
60465;BME280;46314;52.392;9.758;2023-04-19T11:01:39;101842.06;;;14.35;25.05
60465;BME280;46314;52.392;9.758;2023-04-19T11:04:07;101826.22;;;14.93;25.03
60465;BME280;46314;52.392;9.758;2023-04-19T11:06:35;101813.38;;;15.44;24.15
60465;BME280;46314;52.392;9.758;2023-04-19T11:09:02;101816.84;;;14.65;24.48
60465;BME280;46314;52.392;9.758;2023-04-19T11:11:32;101818.44;;;15.42;24.50
60465;BME280;46314;52.392;9.758;2023-04-19T11:13:59;101798.75;;;15.33;24.57
60465;BME280;46314;52.392;9.758;2023-04-19T11:16:25;101808.09;;;14.71;25.16
60465;BME280;46314;52.392;9.758;2023-04-19T11:19:14;101807.94;;;13.95;26.01
60465;BME280;46314;52.392;9.758;2023-04-19T11:21:40;101796.34;;;14.50;25.82
60465;BME280;46314;52.392;9.758;2023-04-19T11:24:07;101796.38;;;14.26;25.88
60465;BME280;46314;52.392;9.758;2023-04-19T11:26:35;101804.25;;;14.67;25.93
60465;BME280;46314;52.392;9.758;2023-04-19T11:29:01;101797.59;;;14.82;25.94
60465;BME280;46314;52.392;9.758;2023-04-19T11:31:31;101800.13;;;15.36;25.97
60465;BME280;46314;52.392;9.758;2023-04-19T11:33:58;101791.31;;;15.42;26.12
60465;BME280;46314;52.392;9.758;2023-04-19T11:36:24;101794.06;;;14.76;26.03
60465;BME280;46314;52.392;9.758;2023-04-19T11:38:51;101793.06;;;15.05;26.56
60465;BME280;46314;52.392;9.758;2023-04-19T11:41:18;101784.19;;;13.98;27.15
60465;BME280;46314;52.392;9.758;2023-04-19T11:43:45;101780.66;;;14.35;27.23
60465;BME280;46314;52.392;9.758;2023-04-19T11:46:12;101779.00;;;15.76;26.39
60465;BME280;46314;52.392;9.758;2023-04-19T11:48:49;101785.06;;;15.31;25.90
60465;BME280;46314;52.392;9.758;2023-04-19T11:51:16;101761.13;;;14.92;26.71
60465;BME280;46314;52.392;9.758;2023-04-19T11:53:42;101773.34;;;15.62;25.83
60465;BME280;46314;52.392;9.758;2023-04-19T11:56:09;101769.34;;;14.02;27.12
60465;BME280;46314;52.392;9.758;2023-04-19T11:58:36;101771.84;;;14.04;26.88
60465;BME280;46314;52.392;9.758;2023-04-19T12:01:06;101767.28;;;13.65;26.55
60465;BME280;46314;52.392;9.758;2023-04-19T12:03:53;101763.53;;;14.42;26.43
60465;BME280;46314;52.392;9.758;2023-04-19T12:06:23;101750.78;;;13.69;26.57
60465;BME280;46314;52.392;9.758;2023-04-19T12:08:50;101755.66;;;15.20;25.68
60465;BME280;46314;52.392;9.758;2023-04-19T12:11:18;101758.88;;;14.13;27.30
60465;BME280;46314;52.392;9.758;2023-04-19T12:13:45;101756.31;;;14.17;27.26
60465;BME280;46314;52.392;9.758;2023-04-19T12:16:13;101750.81;;;13.88;27.27
60465;BME280;46314;52.392;9.758;2023-04-19T12:18:44;101744.44;;;15.06;25.90
60465;BME280;46314;52.392;9.758;2023-04-19T12:21:22;101744.84;;;14.43;26.63
60465;BME280;46314;52.392;9.758;2023-04-19T12:23:49;101744.38;;;13.92;26.92
60465;BME280;46314;52.392;9.758;2023-04-19T12:26:15;101737.97;;;13.68;27.39
60465;BME280;46314;52.392;9.758;2023-04-19T12:28:42;101744.00;;;13.75;27.05
60465;BME280;46314;52.392;9.758;2023-04-19T12:31:08;101740.69;;;13.73;26.86
60465;BME280;46314;52.392;9.758;2023-04-19T12:33:36;101734.88;;;13.93;26.68
60465;BME280;46314;52.392;9.758;2023-04-19T12:36:03;101723.22;;;14.29;26.90
60465;BME280;46314;52.392;9.758;2023-04-19T12:38:29;101723.91;;;14.40;26.19
60465;BME280;46314;52.392;9.758;2023-04-19T12:40:56;101738.31;;;13.61;27.13
60465;BME280;46314;52.392;9.758;2023-04-19T12:43:22;101728.69;;;13.48;27.27
60465;BME280;46314;52.392;9.758;2023-04-19T12:45:49;101737.25;;;13.57;27.23
60465;BME280;46314;52.392;9.758;2023-04-19T12:48:15;101713.16;;;13.90;27.13
60465;BME280;46314;52.392;9.758;2023-04-19T12:50:43;101726.47;;;14.17;27.44
60465;BME280;46314;52.392;9.758;2023-04-19T12:53:09;101709.72;;;13.98;27.52
60465;BME280;46314;52.392;9.758;2023-04-19T12:55:36;101710.91;;;13.68;28.38
60465;BME280;46314;52.392;9.758;2023-04-19T12:58:02;101731.81;;;13.12;28.99
60465;BME280;46314;52.392;9.758;2023-04-19T13:00:29;101703.44;;;13.63;28.45